createdAt,value
2022-08-30T00:03:21.047Z,13.65
2022-08-30T00:08:23.855Z,11.38
2022-08-30T00:13:26.440Z,14.85
2022-08-30T00:18:28.716Z,13.40
2022-08-30T00:23:31.428Z,14.82
2022-08-30T00:28:34.398Z,12.23
2022-08-30T00:33:37.238Z,18.23
2022-08-30T00:38:39.505Z,12.85
2022-08-30T00:43:42.131Z,19.77
2022-08-30T00:48:46.590Z,13.82
2022-08-30T00:53:55.077Z,17.73
2022-08-30T01:04:00.869Z,12.13
2022-08-30T01:09:05.620Z,12.68
2022-08-30T01:14:09.124Z,15.60
2022-08-30T01:19:27.437Z,9.07
2022-08-30T01:24:30.844Z,11.80
2022-08-30T01:29:33.333Z,14.10
2022-08-30T01:34:35.676Z,14.00
2022-08-30T01:39:38.512Z,17.20
2022-08-30T01:44:40.853Z,13.73
2022-08-30T01:49:43.904Z,13.13
2022-08-30T01:54:46.972Z,14.93
2022-08-30T01:59:50.470Z,12.73
2022-08-30T02:04:53.766Z,12.27
2022-08-30T02:09:57.098Z,16.00
2022-08-30T02:14:59.456Z,11.67
2022-08-30T02:20:02.180Z,14.47
2022-08-30T02:25:07.435Z,15.57
2022-08-30T02:30:22.964Z,13.23
2022-08-30T02:35:25.527Z,13.17
2022-08-30T02:40:27.884Z,12.97
2022-08-30T02:45:30.353Z,16.47
2022-08-30T02:50:32.648Z,20.53
2022-08-30T02:55:35.070Z,18.80
2022-08-30T03:00:37.844Z,13.03
2022-08-30T03:05:40.085Z,10.13
2022-08-30T03:10:44.287Z,20.27
2022-08-30T03:15:48.019Z,14.57
2022-08-30T03:20:54.233Z,14.43
2022-08-30T03:25:57.652Z,15.07
2022-08-30T03:31:00.096Z,14.63
2022-08-30T03:36:02.554Z,12.17
2022-08-30T03:41:06.166Z,15.87
2022-08-30T03:46:11.640Z,14.17
2022-08-30T03:51:13.942Z,13.80
2022-08-30T03:56:16.532Z,12.47
2022-08-30T04:01:18.980Z,15.50
2022-08-30T04:06:21.253Z,12.73
2022-08-30T04:11:23.520Z,15.47
2022-08-30T04:16:26.686Z,15.83
2022-08-30T04:21:31.099Z,14.23
2022-08-30T04:26:34.281Z,10.20
2022-08-30T04:31:36.589Z,15.60
2022-08-30T04:36:39.274Z,13.10
2022-08-30T04:41:41.524Z,20.83
2022-08-30T04:46:44.425Z,16.67
2022-08-30T04:51:47.312Z,12.30
2022-08-30T04:56:52.403Z,16.03
2022-08-30T05:01:54.844Z,16.23
2022-08-30T05:06:57.192Z,15.70
2022-08-30T05:11:59.410Z,14.80
2022-08-30T05:17:01.700Z,18.87
2022-08-30T05:22:04.398Z,19.33
2022-08-30T05:27:06.718Z,18.90
2022-08-30T05:32:09.483Z,18.13
2022-08-30T05:37:11.708Z,21.33
2022-08-30T05:42:16.883Z,30.27
2022-08-30T05:47:20.157Z,25.00
2022-08-30T05:52:22.529Z,16.90
2022-08-30T05:57:25.217Z,17.90
2022-08-30T06:02:28.246Z,21.17
2022-08-30T06:07:30.505Z,20.30
2022-08-30T06:12:32.987Z,18.63
2022-08-30T06:17:35.224Z,20.02
2022-08-30T06:22:39.151Z,21.15
2022-08-30T06:27:42.419Z,21.90
2022-08-30T06:32:44.721Z,16.85
2022-08-30T06:37:46.983Z,18.70
2022-08-30T06:42:49.587Z,15.13
2022-08-30T06:47:51.834Z,18.42
2022-08-30T06:52:54.542Z,17.98
2022-08-30T06:58:00.774Z,21.92
2022-08-30T07:03:03.205Z,16.63
2022-08-30T07:08:05.524Z,19.58
2022-08-30T07:13:09.611Z,16.20
2022-08-30T07:18:31.445Z,16.38
2022-08-30T07:23:35.457Z,14.90
2022-08-30T07:28:39.201Z,18.98
2022-08-30T07:33:41.843Z,20.27
2022-08-30T07:38:46.082Z,19.35
2022-08-30T07:43:48.508Z,16.65
2022-08-30T07:48:51.454Z,23.95
2022-08-30T07:53:54.927Z,22.60
2022-08-30T07:58:57.233Z,21.20
2022-08-30T08:03:59.530Z,18.13
2022-08-30T08:09:02.659Z,19.13
2022-08-30T08:14:05.238Z,17.15
2022-08-30T08:19:09.486Z,19.02
2022-08-30T08:24:11.986Z,18.02
2022-08-30T08:29:14.326Z,20.98
2022-08-30T08:34:19.250Z,17.08
2022-08-30T08:39:21.496Z,20.38
2022-08-30T08:50:19.565Z,18.33
2022-08-30T08:55:22.997Z,19.65
2022-08-30T09:00:25.742Z,15.30
2022-08-30T09:05:37.824Z,14.30
2022-08-30T09:10:50.568Z,14.35
2022-08-30T09:15:56.696Z,14.25
2022-08-30T09:26:09.845Z,17.48
2022-08-30T09:31:26.374Z,18.60
2022-08-30T09:36:33.779Z,14.27
2022-08-30T09:41:42.853Z,12.73
2022-08-30T09:46:52.366Z,14.85
2022-08-30T09:52:03.768Z,17.65
2022-08-30T09:57:17.080Z,17.85
2022-08-30T10:02:58.338Z,14.82
2022-08-30T10:08:12.463Z,12.27
2022-08-30T10:13:42.862Z,11.27
2022-08-30T10:19:10.267Z,12.85
2022-08-30T10:24:19.590Z,15.80
2022-08-30T10:29:29.045Z,14.10
2022-08-30T10:34:52.350Z,15.57
2022-08-30T10:39:59.495Z,20.98
2022-08-30T10:45:08.983Z,22.52
2022-08-30T10:50:19.725Z,13.50
2022-08-30T10:55:29.261Z,15.32
2022-08-30T11:00:56.354Z,15.45
2022-08-30T11:06:01.649Z,20.73
2022-08-30T11:11:18.114Z,12.95
2022-08-30T11:16:20.755Z,16.63
2022-08-30T11:21:34.384Z,17.20
2022-08-30T11:26:46.060Z,14.75
2022-08-30T11:31:48.352Z,14.35
2022-08-30T11:36:53.792Z,17.25
2022-08-30T11:42:14.121Z,16.98
2022-08-30T11:47:40.095Z,14.82
2022-08-30T11:53:07.037Z,12.52
2022-08-30T11:58:25.742Z,15.93
2022-08-30T12:03:33.393Z,17.30
2022-08-30T12:08:44.789Z,15.02
2022-08-30T12:13:47.179Z,16.30
2022-08-30T12:19:00.443Z,12.88
2022-08-30T12:24:30.626Z,17.33
2022-08-30T12:29:32.935Z,19.70
2022-08-30T12:34:41.302Z,18.25
2022-08-30T12:39:44.394Z,16.60
2022-08-30T12:44:48.070Z,12.25
2022-08-30T12:49:50.878Z,16.15
2022-08-30T12:54:54.897Z,19.20
2022-08-30T13:00:02.020Z,16.52
2022-08-30T13:05:45.544Z,18.00
2022-08-30T13:10:54.389Z,12.45
2022-08-30T13:15:56.641Z,19.08
2022-08-30T13:21:25.918Z,15.60
2022-08-30T13:26:30.402Z,18.15
2022-08-30T13:31:33.308Z,26.30
2022-08-30T13:36:44.845Z,25.50
2022-08-30T13:41:47.611Z,16.52
2022-08-30T13:46:55.357Z,17.65
2022-08-30T13:52:19.214Z,22.65
2022-08-30T14:02:51.505Z,16.52
2022-08-30T14:07:59.042Z,17.05
2022-08-30T14:13:13.987Z,16.88
2022-08-30T14:18:18.049Z,28.38
2022-08-30T14:23:21.690Z,31.42
2022-08-30T14:28:24.759Z,22.92
2022-08-30T14:33:27.167Z,20.83
2022-08-30T14:38:29.487Z,37.95
2022-08-30T14:43:31.854Z,43.22
2022-08-30T14:48:34.161Z,65.78
2022-08-30T14:53:37.123Z,36.20
2022-08-30T14:58:39.676Z,49.88
2022-08-30T15:03:42.182Z,31.67
2022-08-30T15:08:47.884Z,25.85
2022-08-30T15:13:52.969Z,34.38
2022-08-30T15:18:56.228Z,26.35
2022-08-30T15:24:01.743Z,26.25
2022-08-30T15:29:04.336Z,18.60
2022-08-30T15:34:13.428Z,14.65
2022-08-30T15:39:16.693Z,12.55
2022-08-30T15:44:19.196Z,11.05
2022-08-30T15:49:23.114Z,15.25
2022-08-30T15:54:26.006Z,10.88
2022-08-30T15:59:29.598Z,19.65
2022-08-30T16:04:31.964Z,15.27
2022-08-30T16:09:35.455Z,16.17
2022-08-30T16:14:40.377Z,24.27
2022-08-30T16:19:42.756Z,33.15
2022-08-30T16:24:46.744Z,42.53
2022-08-30T16:29:50.188Z,39.40
2022-08-30T16:34:52.587Z,24.20
2022-08-30T16:39:54.807Z,38.30
2022-08-30T16:44:57.698Z,30.05
2022-08-30T16:50:00.827Z,38.42
2022-08-30T16:55:03.349Z,44.30
2022-08-30T17:00:13.210Z,35.72
2022-08-30T17:05:15.929Z,46.13
2022-08-30T17:10:20.918Z,54.30
2022-08-30T17:15:27.309Z,56.22
2022-08-30T17:20:34.024Z,35.42
2022-08-30T17:25:37.141Z,32.55
2022-08-30T17:30:39.692Z,22.17
2022-08-30T17:35:42.473Z,20.80
2022-08-30T17:40:44.898Z,19.98
2022-08-30T17:45:47.314Z,42.22
2022-08-30T17:50:57.783Z,41.42
2022-08-30T17:56:00.325Z,23.30
2022-08-30T18:01:11.898Z,19.13
2022-08-30T18:06:17.293Z,16.02
2022-08-30T18:11:19.701Z,21.65
2022-08-30T18:16:26.543Z,14.57
2022-08-30T18:21:29.229Z,7.97
2022-08-30T18:26:32.315Z,11.55
2022-08-30T18:31:35.018Z,9.18
2022-08-30T18:36:38.776Z,8.00
2022-08-30T18:41:42.950Z,12.30
2022-08-30T18:46:55.858Z,12.05
2022-08-30T18:52:02.282Z,19.05
2022-08-30T18:57:05.836Z,13.57
2022-08-30T19:02:11.341Z,11.40
2022-08-30T19:07:18.213Z,14.65
2022-08-30T19:12:21.099Z,16.77
2022-08-30T19:17:23.988Z,18.83
2022-08-30T19:22:39.825Z,11.05
2022-08-30T19:27:51.680Z,13.75
2022-08-30T19:32:54.141Z,10.23
2022-08-30T19:37:56.685Z,10.77
2022-08-30T19:42:59.323Z,14.32
2022-08-30T19:48:02.344Z,12.98
2022-08-30T19:53:05.548Z,9.80
2022-08-30T19:58:07.950Z,7.57
2022-08-30T20:03:11.328Z,5.82
2022-08-30T20:08:13.920Z,6.25
2022-08-30T20:13:16.174Z,5.50
2022-08-30T20:18:18.569Z,7.57
2022-08-30T20:23:24.118Z,9.02
2022-08-30T20:28:27.998Z,4.93
2022-08-30T20:33:30.490Z,7.30
2022-08-30T20:38:33.313Z,4.05
2022-08-30T20:43:35.583Z,6.47
2022-08-30T20:48:38.719Z,6.28
2022-08-30T20:53:41.078Z,6.70
2022-08-30T20:58:46.692Z,7.15
2022-08-30T21:03:48.998Z,5.75
2022-08-30T21:08:51.756Z,6.07
2022-08-30T21:13:54.016Z,11.38
2022-08-30T21:18:56.508Z,8.13
2022-08-30T21:24:01.560Z,8.65
2022-08-30T21:29:04.741Z,10.90
2022-08-30T21:34:07.462Z,10.00
2022-08-30T21:39:20.052Z,12.10
2022-08-30T21:44:26.005Z,9.93
2022-08-30T21:49:28.299Z,11.15
2022-08-30T21:54:31.199Z,12.05
2022-08-30T21:59:34.132Z,10.43
2022-08-30T22:04:36.468Z,11.13
2022-08-30T22:09:38.796Z,9.38
2022-08-30T22:14:41.180Z,13.13
2022-08-30T22:19:43.446Z,9.40
2022-08-30T22:24:45.951Z,8.88
2022-08-30T22:29:48.302Z,15.07
2022-08-30T22:34:51.214Z,7.15
2022-08-30T22:39:53.580Z,14.63
2022-08-30T22:44:55.869Z,7.28
2022-08-30T22:49:58.111Z,13.07
2022-08-30T22:55:00.406Z,29.17
2022-08-30T23:00:06.309Z,30.67
2022-08-30T23:05:09.370Z,42.53
2022-08-30T23:10:12.597Z,40.23
2022-08-30T23:15:16.320Z,37.93
2022-08-30T23:20:18.753Z,46.33
2022-08-30T23:25:41.661Z,42.33
2022-08-30T23:31:05.315Z,40.87
2022-08-30T23:36:31.602Z,35.78
2022-08-30T23:41:52.360Z,31.80
2022-08-30T23:47:13.159Z,36.47
2022-08-30T23:52:33.874Z,33.87
2022-08-30T23:57:54.664Z,34.77
